Time;durP1;ratioP1;P1;durP2;ratioP2;P2;SDS_P1;SDS_P2;PMS_P1;PMS_P2;Temp;Humidity;BMP_temperature;BMP_pressure;BME280_temperature;BME280_humidity;BME280_pressure;Samples;Min_cycle;Max_cycle;Signal;HPM_P1;HPM_P2
2022/01/26 00:09:16;;;;;;;34.20;13.45;;;;;;;;;;10481216;28;20297;-77
2022/01/26 00:14:17;;;;;;;36.80;15.13;;;;;;;;;;10476852;28;20190;-77
2022/01/26 00:19:26;;;;;;;36.67;13.93;;;;;;;;;;10477242;28;20273;-80
2022/01/26 00:24:52;;;;;;;38.90;14.63;;;;;;;;;;10463377;28;20947;-79
2022/01/26 00:30:00;;;;;;;34.75;12.85;;;;;;;;;;10474427;28;20367;-76
2022/01/26 00:45:36;;;;;;;40.13;15.38;;;;;;;;;;10459382;28;20237;-79
2022/01/26 00:50:40;;;;;;;38.92;14.65;;;;;;;;;;10450627;28;20733;-77
2022/01/26 00:55:41;;;;;;;48.67;15.23;;;;;;;;;;10438822;28;20617;-77
2022/01/26 01:19:15;;;;;;;37.40;13.45;;;;;;;;;;10473873;28;21000;-77
2022/01/26 01:25:11;;;;;;;35.72;12.73;;;;;;;;;;10481100;28;20205;-76
2022/01/26 01:35:19;;;;;;;33.30;12.32;;;;;;;;;;10473846;28;20209;-79
2022/01/26 01:40:20;;;;;;;29.90;12.20;;;;;;;;;;10480404;28;20213;-78
2022/01/26 01:45:29;;;;;;;27.55;11.25;;;;;;;;;;10460402;28;20221;-79
2022/01/26 01:50:31;;;;;;;28.08;12.18;;;;;;;;;;10481801;28;20215;-79
2022/01/26 01:55:32;;;;;;;25.65;10.95;;;;;;;;;;10465495;28;20749;-77
2022/01/26 02:00:34;;;;;;;34.22;14.05;;;;;;;;;;10464805;28;20205;-80
2022/01/26 02:05:35;;;;;;;36.17;14.85;;;;;;;;;;10457213;28;20952;-77
2022/01/26 02:10:37;;;;;;;30.65;14.95;;;;;;;;;;10443724;28;20232;-78
2022/01/26 02:15:47;;;;;;;30.30;14.57;;;;;;;;;;10453897;28;24355;-78
2022/01/26 03:08:04;;;;;;;24.65;12.32;;;;;;;;;;10489157;28;20213;-78
2022/01/26 03:13:10;;;;;;;22.67;11.57;;;;;;;;;;10492089;28;20200;-78
2022/01/26 03:28:46;;;;;;;23.35;12.52;;;;;;;;;;10494356;28;20206;-80
2022/01/26 03:39:07;;;;;;;28.40;14.38;;;;;;;;;;10475072;28;20194;-79
2022/01/26 03:44:08;;;;;;;29.08;13.43;;;;;;;;;;10479216;28;20872;-80
2022/01/26 03:49:10;;;;;;;24.52;13.23;;;;;;;;;;10460342;28;20221;-77
2022/01/26 03:54:11;;;;;;;24.80;13.00;;;;;;;;;;10459188;28;20224;-78
2022/01/26 03:59:12;;;;;;;24.67;12.55;;;;;;;;;;10459519;28;20190;-77
2022/01/26 04:04:15;;;;;;;23.00;12.88;;;;;;;;;;10461682;28;20217;-79
2022/01/26 04:09:18;;;;;;;28.27;14.45;;;;;;;;;;10477233;28;20217;-77
2022/01/26 04:14:23;;;;;;;29.63;13.70;;;;;;;;;;10446730;28;20189;-77
2022/01/26 04:19:27;;;;;;;27.98;13.63;;;;;;;;;;10446961;28;20209;-77
2022/01/26 04:24:36;;;;;;;28.27;13.40;;;;;;;;;;10463825;28;20226;-78
2022/01/26 04:29:37;;;;;;;28.80;13.45;;;;;;;;;;10460338;28;20228;-79
2022/01/26 04:34:38;;;;;;;27.58;14.07;;;;;;;;;;10466552;28;20210;-79
2022/01/26 04:39:46;;;;;;;26.50;13.95;;;;;;;;;;10475405;28;20712;-80
2022/01/26 04:44:53;;;;;;;27.67;13.55;;;;;;;;;;10452429;28;20218;-77
2022/01/26 04:49:54;;;;;;;31.95;12.93;;;;;;;;;;10429468;28;20232;-78
2022/01/26 04:54:56;;;;;;;29.65;13.20;;;;;;;;;;10450227;28;20190;-80
2022/01/26 04:59:57;;;;;;;28.80;13.50;;;;;;;;;;10441991;28;20201;-78
2022/01/26 05:04:59;;;;;;;27.80;12.65;;;;;;;;;;10441932;28;20217;-77
2022/01/26 05:10:02;;;;;;;28.42;13.70;;;;;;;;;;10449224;28;20790;-79
2022/01/26 05:15:04;;;;;;;33.72;14.73;;;;;;;;;;10424388;28;20191;-77
2022/01/26 05:20:08;;;;;;;30.30;13.73;;;;;;;;;;10415720;28;20194;-78
2022/01/26 05:25:09;;;;;;;28.15;13.43;;;;;;;;;;10406795;28;20202;-80
2022/01/26 05:30:10;;;;;;;28.35;13.13;;;;;;;;;;10414632;28;20224;-78
2022/01/26 05:35:11;;;;;;;32.05;15.05;;;;;;;;;;10428225;28;20237;-81
2022/01/26 05:40:13;;;;;;;34.00;14.80;;;;;;;;;;10418092;28;20201;-78
2022/01/26 05:45:24;;;;;;;35.13;15.05;;;;;;;;;;10429628;28;20218;-80
2022/01/26 05:50:25;;;;;;;30.50;14.90;;;;;;;;;;10436082;28;20214;-79
2022/01/26 05:55:26;;;;;;;33.78;14.25;;;;;;;;;;10441592;28;20189;-79
2022/01/26 06:00:27;;;;;;;32.28;15.68;;;;;;;;;;10439786;28;20697;-79
2022/01/26 06:05:28;;;;;;;34.92;15.45;;;;;;;;;;10435799;28;20290;-79
2022/01/26 06:10:29;;;;;;;32.20;14.43;;;;;;;;;;10416464;28;20206;-78
2022/01/26 06:15:30;;;;;;;28.88;14.70;;;;;;;;;;10414674;28;20255;-80
2022/01/26 06:20:31;;;;;;;35.72;14.85;;;;;;;;;;10437805;28;20626;-77
2022/01/26 06:25:33;;;;;;;33.50;14.60;;;;;;;;;;10419677;28;20297;-78
2022/01/26 06:30:34;;;;;;;27.50;14.07;;;;;;;;;;10421397;28;20252;-77
2022/01/26 06:35:35;;;;;;;31.95;13.68;;;;;;;;;;10425603;28;20226;-79
2022/01/26 06:40:37;;;;;;;29.35;13.88;;;;;;;;;;10443382;28;20235;-77
2022/01/26 06:45:45;;;;;;;31.80;14.13;;;;;;;;;;10397895;28;20291;-79
2022/01/26 06:50:46;;;;;;;31.92;14.52;;;;;;;;;;10399806;28;20250;-79
2022/01/26 06:55:47;;;;;;;28.85;13.90;;;;;;;;;;10385050;28;20192;-77
2022/01/26 07:00:48;;;;;;;32.35;14.45;;;;;;;;;;10399808;28;20207;-77
2022/01/26 07:05:49;;;;;;;27.83;13.45;;;;;;;;;;10388150;28;20249;-79
2022/01/26 07:10:53;;;;;;;30.58;13.27;;;;;;;;;;10396914;28;20217;-79
2022/01/26 07:21:26;;;;;;;30.48;12.88;;;;;;;;;;10401811;28;20631;-77
2022/01/26 07:26:28;;;;;;;30.48;13.05;;;;;;;;;;10411649;28;20199;-79
2022/01/26 07:31:30;;;;;;;28.67;12.93;;;;;;;;;;10407490;28;20215;-82
2022/01/26 07:36:31;;;;;;;31.65;12.77;;;;;;;;;;10377287;28;20223;-79
2022/01/26 07:41:32;;;;;;;33.42;13.68;;;;;;;;;;10398090;28;20841;-79
2022/01/26 07:46:33;;;;;;;37.00;14.15;;;;;;;;;;10448563;28;20217;-80
2022/01/26 07:51:34;;;;;;;33.22;14.40;;;;;;;;;;10433678;28;20265;-78
2022/01/26 07:56:35;;;;;;;37.95;15.02;;;;;;;;;;10451939;28;20183;-81
2022/01/26 08:01:37;;;;;;;40.17;15.52;;;;;;;;;;10454284;28;20206;-80
2022/01/26 08:06:38;;;;;;;37.50;15.30;;;;;;;;;;10437664;28;20296;-80
2022/01/26 08:11:39;;;;;;;36.78;15.57;;;;;;;;;;10450468;28;20325;-81
2022/01/26 08:16:40;;;;;;;36.70;15.93;;;;;;;;;;10426773;28;20328;-81
2022/01/26 08:21:42;;;;;;;40.20;17.27;;;;;;;;;;10432912;28;20298;-81
2022/01/26 08:26:47;;;;;;;43.83;17.77;;;;;;;;;;10436384;28;20243;-82
2022/01/26 08:31:49;;;;;;;40.78;17.48;;;;;;;;;;10450164;28;20222;-79
2022/01/26 08:36:50;;;;;;;41.17;16.88;;;;;;;;;;10426364;28;20231;-81
2022/01/26 08:41:51;;;;;;;42.47;17.25;;;;;;;;;;10436140;28;20230;-80
2022/01/26 08:46:52;;;;;;;51.72;19.10;;;;;;;;;;10389499;28;20191;-81
2022/01/26 08:51:53;;;;;;;46.42;18.05;;;;;;;;;;10407187;28;20299;-82
2022/01/26 08:56:54;;;;;;;47.03;18.20;;;;;;;;;;10391828;28;20209;-82
2022/01/26 09:01:55;;;;;;;52.63;18.75;;;;;;;;;;10412481;28;20222;-82
2022/01/26 09:07:00;;;;;;;46.13;18.63;;;;;;;;;;10396510;28;20309;-82
2022/01/26 09:12:06;;;;;;;46.90;19.08;;;;;;;;;;10381508;28;20270;-80
2022/01/26 09:17:10;;;;;;;46.72;18.75;;;;;;;;;;10394221;28;20198;-79
2022/01/26 09:22:13;;;;;;;48.28;20.02;;;;;;;;;;10379258;28;20207;-78
2022/01/26 09:27:16;;;;;;;50.75;20.70;;;;;;;;;;10407143;28;20195;-80
2022/01/26 09:32:18;;;;;;;50.53;20.17;;;;;;;;;;10389980;28;20322;-78
2022/01/26 09:37:19;;;;;;;54.03;21.23;;;;;;;;;;10391648;28;20202;-80
2022/01/26 09:42:20;;;;;;;42.63;19.00;;;;;;;;;;10387327;28;20283;-80
2022/01/26 09:47:22;;;;;;;51.00;20.65;;;;;;;;;;10470023;28;20217;-79
2022/01/26 09:52:32;;;;;;;67.10;22.70;;;;;;;;;;10471598;28;20213;-80
2022/01/26 09:57:34;;;;;;;62.83;22.67;;;;;;;;;;10466252;28;20276;-79
2022/01/26 10:02:36;;;;;;;54.88;21.63;;;;;;;;;;10480995;28;20528;-79
2022/01/26 10:07:48;;;;;;;65.68;22.00;;;;;;;;;;10488524;28;20212;-77
2022/01/26 10:18:13;;;;;;;80.18;23.95;;;;;;;;;;10466451;28;20212;-82
2022/01/26 10:23:17;;;;;;;71.57;23.23;;;;;;;;;;10459442;28;20702;-78
2022/01/26 10:28:19;;;;;;;71.03;24.08;;;;;;;;;;10451055;28;20343;-78
2022/01/26 10:33:20;;;;;;;84.20;24.90;;;;;;;;;;10458324;28;20225;-78
2022/01/26 10:38:21;;;;;;;73.13;23.75;;;;;;;;;;10491931;28;20196;-80
2022/01/26 10:43:22;;;;;;;78.82;24.13;;;;;;;;;;10460015;28;20206;-79
2022/01/26 10:48:42;;;;;;;87.95;25.38;;;;;;;;;;10459047;28;20702;-79
2022/01/26 10:53:48;;;;;;;69.65;21.65;;;;;;;;;;10430544;28;20191;-78
2022/01/26 10:58:49;;;;;;;79.72;22.20;;;;;;;;;;10440211;28;20222;-79
2022/01/26 11:03:50;;;;;;;85.13;23.23;;;;;;;;;;10452579;28;20325;-80
2022/01/26 11:08:51;;;;;;;88.45;23.52;;;;;;;;;;10450396;28;21185;-79
2022/01/26 11:13:53;;;;;;;85.90;23.60;;;;;;;;;;10415181;28;20190;-78
2022/01/26 11:18:58;;;;;;;66.18;19.85;;;;;;;;;;10436705;28;20197;-77
2022/01/26 11:24:06;;;;;;;90.18;21.33;;;;;;;;;;10419507;28;20214;-80
2022/01/26 11:29:18;;;;;;;79.70;21.85;;;;;;;;;;10434874;28;20675;-80
2022/01/26 11:34:19;;;;;;;97.20;25.17;;;;;;;;;;10428677;28;20298;-79
2022/01/26 11:50:23;;;;;;;95.13;24.08;;;;;;;;;;10482938;28;20406;-77
2022/01/26 11:55:31;;;;;;;91.80;24.27;;;;;;;;;;10453705;28;20194;-77
2022/01/26 12:00:41;;;;;;;102.88;24.65;;;;;;;;;;10495279;28;20618;-80
2022/01/26 12:05:45;;;;;;;113.03;28.38;;;;;;;;;;10498057;28;20293;-80
2022/01/26 12:10:47;;;;;;;113.25;30.33;;;;;;;;;;10510653;28;20212;-78
2022/01/26 12:15:54;;;;;;;127.53;31.35;;;;;;;;;;10490018;28;20213;-79
2022/01/26 12:41:54;;;;;;;103.75;33.00;;;;;;;;;;10466984;28;20229;-79
2022/01/26 12:46:56;;;;;;;117.03;34.17;;;;;;;;;;10462620;28;20200;-78
2022/01/26 12:51:57;;;;;;;103.00;32.08;;;;;;;;;;10455824;28;20214;-78
2022/01/26 12:57:03;;;;;;;119.20;33.35;;;;;;;;;;10500044;28;20192;-78
2022/01/26 13:02:04;;;;;;;123.93;35.67;;;;;;;;;;10496011;28;20222;-79
2022/01/26 13:07:05;;;;;;;105.57;33.00;;;;;;;;;;10473843;28;20190;-79
2022/01/26 13:12:06;;;;;;;106.80;32.67;;;;;;;;;;10466322;28;20289;-79
2022/01/26 13:27:29;;;;;;;119.85;35.20;;;;;;;;;;10462893;28;20260;-81
2022/01/26 13:48:20;;;;;;;121.60;34.15;;;;;;;;;;10452705;28;20730;-78
2022/01/26 13:53:32;;;;;;;125.82;31.77;;;;;;;;;;10477298;28;20197;-79
2022/01/26 14:03:37;;;;;;;103.97;31.73;;;;;;;;;;10463682;28;20209;-79
2022/01/26 14:08:40;;;;;;;127.03;32.40;;;;;;;;;;10469435;28;20221;-79
2022/01/26 14:13:44;;;;;;;121.25;31.88;;;;;;;;;;10465954;28;20217;-82
2022/01/26 14:29:27;;;;;;;108.47;29.95;;;;;;;;;;10480676;28;20237;-80
2022/01/26 14:35:02;;;;;;;122.85;31.52;;;;;;;;;;10453742;28;20315;-83
2022/01/26 15:42:59;;;;;;;129.20;35.40;;;;;;;;;;10466890;28;20271;-78
2022/01/26 15:57:20;;;;;;;155.90;36.97;;;;;;;;;;10390435;28;20253;-79
2022/01/26 15:59:17;;;;;;;123.03;32.35;;;;;;;;;;10382935;28;20195;-79
2022/01/26 17:43:14;;;;;;;97.50;27.27;;;;;;;;;;10374031;28;20207;-77
2022/01/26 18:07:15;;;;;;;102.30;27.42;;;;;;;;;;10437065;28;20186;-76
2022/01/26 18:33:10;;;;;;;84.63;23.52;;;;;;;;;;10425879;28;20927;-77
2022/01/26 18:54:12;;;;;;;95.43;27.13;;;;;;;;;;10438835;28;20194;-76
2022/01/26 18:59:14;;;;;;;100.38;26.88;;;;;;;;;;10409704;28;20202;-77
2022/01/26 19:04:17;;;;;;;89.57;26.80;;;;;;;;;;10455718;28;20221;-76
2022/01/26 19:09:22;;;;;;;86.20;25.88;;;;;;;;;;10461111;28;20280;-77
2022/01/26 19:14:27;;;;;;;100.50;26.70;;;;;;;;;;10488847;28;20190;-77
2022/01/26 19:51:59;;;;;;;89.68;25.60;;;;;;;;;;10392598;28;20286;-77
2022/01/26 19:57:00;;;;;;;78.28;23.70;;;;;;;;;;10396487;28;20207;-77
2022/01/26 20:02:02;;;;;;;74.22;24.92;;;;;;;;;;10377021;28;20214;-77
2022/01/26 20:07:10;;;;;;;66.03;22.35;;;;;;;;;;10388847;28;20187;-76
2022/01/26 20:12:26;;;;;;;63.63;22.65;;;;;;;;;;10369230;28;20211;-76
2022/01/26 20:17:27;;;;;;;73.45;22.52;;;;;;;;;;10382374;28;21096;-77
2022/01/26 20:22:29;;;;;;;68.80;23.30;;;;;;;;;;10380824;28;20203;-76
2022/01/26 20:27:30;;;;;;;65.47;23.17;;;;;;;;;;10374264;28;20917;-77
2022/01/26 20:32:32;;;;;;;62.25;22.33;;;;;;;;;;10376193;28;20230;-76
2022/01/26 20:37:33;;;;;;;62.60;20.33;;;;;;;;;;10388939;28;20214;-76
2022/01/26 20:42:34;;;;;;;55.10;18.83;;;;;;;;;;10392959;28;20247;-77
2022/01/26 20:47:37;;;;;;;52.97;18.05;;;;;;;;;;10386770;28;20195;-77
2022/01/26 20:52:38;;;;;;;49.55;15.32;;;;;;;;;;10370663;28;20207;-76
2022/01/26 20:57:39;;;;;;;50.03;18.90;;;;;;;;;;10366686;28;20195;-75
2022/01/26 21:02:40;;;;;;;54.20;18.48;;;;;;;;;;10375742;28;20314;-76
2022/01/26 21:07:42;;;;;;;49.42;16.38;;;;;;;;;;10374970;28;20192;-77
2022/01/26 21:12:43;;;;;;;49.28;17.77;;;;;;;;;;10390126;28;20209;-76
2022/01/26 21:17:46;;;;;;;38.50;14.77;;;;;;;;;;10376634;28;20273;-76
2022/01/26 21:22:47;;;;;;;35.28;14.93;;;;;;;;;;10393231;28;20222;-77
2022/01/26 21:27:48;;;;;;;37.50;15.80;;;;;;;;;;10380211;28;20937;-76
2022/01/26 21:32:50;;;;;;;41.22;14.20;;;;;;;;;;10389159;28;20682;-76
2022/01/26 21:37:53;;;;;;;36.28;13.82;;;;;;;;;;10393603;28;20577;-76
2022/01/26 21:42:54;;;;;;;33.55;12.30;;;;;;;;;;10386035;28;20217;-76
2022/01/26 21:47:55;;;;;;;22.63;11.00;;;;;;;;;;10431802;28;20190;-76
2022/01/26 21:52:56;;;;;;;22.25;10.25;;;;;;;;;;10399613;28;20280;-75
2022/01/26 21:57:57;;;;;;;18.42;9.38;;;;;;;;;;10437359;28;20273;-74
2022/01/26 22:03:02;;;;;;;20.40;7.82;;;;;;;;;;10458310;28;20821;-77
2022/01/26 22:08:04;;;;;;;20.77;9.20;;;;;;;;;;10440686;28;20197;-75
2022/01/26 22:13:06;;;;;;;20.27;10.00;;;;;;;;;;10449542;28;20906;-74
2022/01/26 22:18:07;;;;;;;20.27;9.20;;;;;;;;;;10463199;28;20202;-75
2022/01/26 22:23:09;;;;;;;18.50;8.50;;;;;;;;;;10476555;28;20243;-75
2022/01/26 22:28:15;;;;;;;17.75;8.57;;;;;;;;;;10467052;28;20948;-77
2022/01/26 22:33:16;;;;;;;17.15;8.20;;;;;;;;;;10468207;28;20220;-74
2022/01/26 22:38:17;;;;;;;16.98;8.18;;;;;;;;;;10475821;28;20190;-75
2022/01/26 22:43:18;;;;;;;16.27;8.43;;;;;;;;;;10463382;28;20274;-76
2022/01/26 22:48:21;;;;;;;16.90;8.52;;;;;;;;;;10481447;28;20756;-74
2022/01/26 22:53:22;;;;;;;14.60;8.05;;;;;;;;;;10479274;28;20573;-75
2022/01/26 22:58:24;;;;;;;18.35;8.60;;;;;;;;;;10477381;28;20198;-75
2022/01/26 23:03:25;;;;;;;16.05;9.30;;;;;;;;;;10452815;28;21754;-78
2022/01/26 23:08:26;;;;;;;18.00;8.63;;;;;;;;;;10479054;28;20193;-76
2022/01/26 23:13:27;;;;;;;18.20;9.23;;;;;;;;;;10451036;28;20201;-75
2022/01/26 23:18:28;;;;;;;18.67;9.32;;;;;;;;;;10468541;28;20228;-74
2022/01/26 23:23:32;;;;;;;16.98;9.90;;;;;;;;;;10475945;28;20190;-75
2022/01/26 23:28:52;;;;;;;18.90;9.45;;;;;;;;;;10464467;28;20266;-75
2022/01/26 23:39:25;;;;;;;19.13;9.25;;;;;;;;;;10483091;28;20193;-76
